Bridgewater, Maine
Current Conditions -  °F | °C
As of 2:53 PM on Sunday 25 Jan 2015 (Local Time) from KHUL Reporting Station
Clear Clear  
Wind Chill:   Ceiling: Unl
Heat Index: 16°   Visibility: 7mi
Dew Point: -1°   Wind: 14mph
Humidity: 47%   Direction: 280°W
Pressure: 29.41"   Gusts: 30mph
Location:  46.43°N, 67.84°W
Report Text: KHUL 251953Z AUTO 28012G26KT 7SM CLR M09/M18 A2941 RMK AO2 PK WND 27030/1943 SLP968 T10891183
Loading
Personal Weather Stations






























Interactive Weather Map New forecast layout! Learn more

10-Day Weather Forecast

Advertisements
Track Severe Weather on mobile